createdAt,value
2019-03-30T00:00:02.223Z,10.39
2019-03-30T00:02:29.646Z,10.27
2019-03-30T00:04:57.148Z,10.24
2019-03-30T00:07:24.568Z,10.15
2019-03-30T00:09:52.016Z,10.08
2019-03-30T00:12:22.883Z,10.14
2019-03-30T00:14:47.026Z,10.12
2019-03-30T00:17:14.425Z,10.15
2019-03-30T00:19:41.868Z,10.12
2019-03-30T00:22:09.345Z,10.06
2019-03-30T00:24:36.823Z,10.00
2019-03-30T00:27:04.241Z,9.88
2019-03-30T00:29:31.652Z,9.79
2019-03-30T00:31:59.073Z,9.86
2019-03-30T00:34:26.472Z,9.85
2019-03-30T00:36:53.942Z,9.88
2019-03-30T00:39:21.354Z,9.83
2019-03-30T00:41:48.811Z,9.91
2019-03-30T00:44:16.212Z,10.01
2019-03-30T00:46:43.636Z,9.96
2019-03-30T00:49:11.102Z,9.78
2019-03-30T00:51:38.493Z,9.85
2019-03-30T00:54:05.928Z,9.84
2019-03-30T00:56:33.374Z,9.73
2019-03-30T00:59:00.931Z,9.77
2019-03-30T01:01:28.340Z,9.79
2019-03-30T01:03:55.798Z,9.77
2019-03-30T01:06:23.221Z,9.75
2019-03-30T01:08:50.625Z,9.68
2019-03-30T01:11:18.059Z,9.53
2019-03-30T01:13:45.478Z,9.45
2019-03-30T01:16:12.895Z,9.42
2019-03-30T01:18:40.295Z,9.31
2019-03-30T01:21:07.742Z,9.43
2019-03-30T01:23:35.153Z,9.57
2019-03-30T01:26:02.674Z,9.61
2019-03-30T01:28:30.975Z,9.58
2019-03-30T01:30:58.385Z,9.46
2019-03-30T01:33:25.796Z,9.44
2019-03-30T01:35:53.253Z,9.55
2019-03-30T01:38:20.663Z,9.61
2019-03-30T01:40:48.065Z,9.57
2019-03-30T01:43:15.460Z,9.39
2019-03-30T01:45:42.866Z,9.36
2019-03-30T01:48:10.278Z,9.35
2019-03-30T01:50:37.737Z,9.17
2019-03-30T01:53:05.130Z,9.07
2019-03-30T01:55:32.519Z,9.07
2019-03-30T01:57:59.927Z,9.12
2019-03-30T02:00:27.345Z,9.18
2019-03-30T02:02:54.749Z,9.15
2019-03-30T02:05:22.156Z,9.03
2019-03-30T02:07:49.547Z,8.90
2019-03-30T02:10:16.961Z,8.76
2019-03-30T02:12:44.368Z,8.72
2019-03-30T02:15:11.770Z,8.72
2019-03-30T02:17:39.182Z,8.78
2019-03-30T02:20:07.201Z,8.87
2019-03-30T02:22:34.608Z,8.82
2019-03-30T02:25:02.016Z,8.85
2019-03-30T02:27:29.457Z,8.89
2019-03-30T02:29:56.854Z,8.88
2019-03-30T02:32:24.262Z,8.76
2019-03-30T02:34:52.656Z,8.71
2019-03-30T02:37:20.065Z,8.70
2019-03-30T02:39:47.474Z,8.77
2019-03-30T02:42:14.877Z,8.68
2019-03-30T02:44:42.286Z,8.70
2019-03-30T02:47:09.682Z,8.65
2019-03-30T02:49:37.105Z,8.57
2019-03-30T02:52:04.505Z,8.59
2019-03-30T02:54:31.907Z,8.52
2019-03-30T02:56:59.302Z,8.54
2019-03-30T02:59:26.692Z,8.55
2019-03-30T03:01:54.253Z,8.64
2019-03-30T03:04:21.511Z,8.60
2019-03-30T03:06:48.920Z,8.63
2019-03-30T03:09:16.316Z,8.70
2019-03-30T03:11:43.724Z,8.60
2019-03-30T03:14:11.123Z,8.52
2019-03-30T03:16:38.536Z,8.43
2019-03-30T03:19:05.930Z,8.39
2019-03-30T03:21:33.361Z,8.53
2019-03-30T03:24:00.798Z,8.48
2019-03-30T03:26:28.206Z,8.30
2019-03-30T03:28:55.622Z,8.24
2019-03-30T03:31:23.037Z,8.35
2019-03-30T03:33:50.472Z,8.32
2019-03-30T03:36:17.864Z,8.18
2019-03-30T03:38:45.279Z,8.06
2019-03-30T03:41:12.677Z,8.04
2019-03-30T03:43:40.076Z,8.06
2019-03-30T03:46:07.493Z,8.13
2019-03-30T03:48:34.917Z,8.09
2019-03-30T03:51:03.102Z,8.04
2019-03-30T03:53:30.507Z,7.99
2019-03-30T03:55:57.899Z,8.00
2019-03-30T03:58:25.352Z,7.99
2019-03-30T04:00:52.765Z,7.95
2019-03-30T04:03:20.161Z,7.89
2019-03-30T04:05:47.594Z,8.04
2019-03-30T04:08:14.988Z,8.11
2019-03-30T04:10:42.444Z,8.03
2019-03-30T04:13:09.884Z,7.99
2019-03-30T04:15:37.267Z,7.84
2019-03-30T04:18:04.693Z,7.80
2019-03-30T04:20:32.079Z,7.69
2019-03-30T04:22:59.494Z,7.71
2019-03-30T04:25:26.954Z,7.68
2019-03-30T04:27:54.364Z,7.64
2019-03-30T04:30:22.482Z,7.65
2019-03-30T04:32:49.948Z,7.62
2019-03-30T04:35:17.366Z,7.67
2019-03-30T04:37:44.758Z,7.61
2019-03-30T04:40:12.179Z,7.51
2019-03-30T04:42:39.579Z,7.51
2019-03-30T04:45:06.982Z,7.45
2019-03-30T04:47:34.384Z,7.51
2019-03-30T04:50:01.793Z,7.53
2019-03-30T04:52:29.187Z,7.57
2019-03-30T04:54:56.607Z,7.71
2019-03-30T04:57:24.078Z,7.73
2019-03-30T04:59:51.472Z,7.65
2019-03-30T05:02:18.875Z,7.61
2019-03-30T05:04:46.275Z,7.57
2019-03-30T05:07:13.684Z,7.56
2019-03-30T05:09:41.084Z,7.59
2019-03-30T05:12:08.500Z,7.66
2019-03-30T05:14:35.891Z,7.68
2019-03-30T05:17:03.304Z,7.73
2019-03-30T05:19:30.711Z,7.77
2019-03-30T05:22:11.581Z,7.78
2019-03-30T05:24:25.540Z,7.75
2019-03-30T05:26:52.948Z,7.59
2019-03-30T05:29:21.008Z,7.65
2019-03-30T05:31:48.473Z,7.75
2019-03-30T05:34:15.820Z,7.76
2019-03-30T05:36:43.225Z,7.80
2019-03-30T05:39:10.632Z,7.77
2019-03-30T05:41:38.031Z,7.60
2019-03-30T05:44:05.453Z,7.53
2019-03-30T05:46:32.846Z,7.57
2019-03-30T05:49:00.274Z,7.66
2019-03-30T05:51:27.671Z,7.79
2019-03-30T05:53:55.075Z,7.76
2019-03-30T05:56:22.467Z,7.85
2019-03-30T05:58:49.876Z,7.86
2019-03-30T06:01:17.273Z,7.78
2019-03-30T06:03:44.674Z,7.81
2019-03-30T06:06:12.102Z,7.92
2019-03-30T06:08:39.502Z,7.92
2019-03-30T06:11:06.903Z,7.82
2019-03-30T06:13:34.311Z,7.75
2019-03-30T06:16:01.749Z,7.60
2019-03-30T06:18:29.156Z,7.67
2019-03-30T06:20:56.599Z,7.70
2019-03-30T06:23:24.013Z,7.75
2019-03-30T06:25:51.408Z,7.78
2019-03-30T06:28:18.819Z,8.03
2019-03-30T06:30:46.232Z,8.27
2019-03-30T06:33:13.659Z,8.31
2019-03-30T06:35:41.190Z,8.33
2019-03-30T06:38:08.643Z,8.48
2019-03-30T06:40:36.348Z,8.60
2019-03-30T06:43:03.770Z,8.63
2019-03-30T06:45:37.005Z,8.69
2019-03-30T06:48:04.419Z,8.68
2019-03-30T06:50:31.832Z,8.93
2019-03-30T06:52:59.303Z,9.22
2019-03-30T06:55:26.691Z,9.46
2019-03-30T06:57:54.087Z,9.48
2019-03-30T07:00:27.230Z,9.51
2019-03-30T07:02:54.631Z,9.58
2019-03-30T07:05:22.054Z,9.70
2019-03-30T07:07:49.460Z,9.65
2019-03-30T07:10:16.867Z,9.71
2019-03-30T07:12:44.298Z,9.88
2019-03-30T07:15:11.701Z,9.89
2019-03-30T07:17:39.914Z,9.97
2019-03-30T07:20:07.394Z,10.09
2019-03-30T07:22:34.805Z,10.16
2019-03-30T07:25:01.783Z,10.11
2019-03-30T07:27:28.752Z,10.11
2019-03-30T07:29:55.707Z,10.16
2019-03-30T07:32:22.684Z,10.25
2019-03-30T07:34:49.688Z,10.40
2019-03-30T07:37:16.651Z,10.60
2019-03-30T07:39:43.631Z,10.93
2019-03-30T07:42:10.574Z,11.23
2019-03-30T07:44:37.996Z,11.38
2019-03-30T07:47:05.478Z,11.54
2019-03-30T07:49:32.963Z,11.74
2019-03-30T07:52:00.417Z,11.64
2019-03-30T07:54:27.816Z,11.82
2019-03-30T07:57:05.323Z,12.15
2019-03-30T07:59:22.685Z,12.23
2019-03-30T08:01:54.914Z,12.28
2019-03-30T08:04:22.330Z,12.35
2019-03-30T08:06:49.739Z,12.50
2019-03-30T08:09:17.151Z,12.57
2019-03-30T08:11:44.593Z,12.51
2019-03-30T08:14:11.997Z,12.69
2019-03-30T08:16:39.413Z,12.93
2019-03-30T08:19:06.816Z,13.04
2019-03-30T08:21:34.243Z,12.90
2019-03-30T08:24:01.672Z,12.85
2019-03-30T08:26:29.079Z,12.79
2019-03-30T08:28:56.535Z,12.84
2019-03-30T08:31:23.959Z,12.97
2019-03-30T08:33:51.373Z,12.88
2019-03-30T08:36:18.932Z,12.83
2019-03-30T08:38:46.334Z,13.00
2019-03-30T08:41:14.971Z,13.46
2019-03-30T08:43:42.383Z,13.67
2019-03-30T08:46:09.809Z,13.81
2019-03-30T08:48:37.195Z,13.57
2019-03-30T08:51:04.707Z,13.54
2019-03-30T08:53:32.115Z,13.89
2019-03-30T08:55:59.610Z,14.16
2019-03-30T08:58:27.011Z,14.03
2019-03-30T09:00:54.429Z,13.81
2019-03-30T09:03:21.839Z,13.78
2019-03-30T09:05:50.063Z,13.61
2019-03-30T09:08:17.496Z,13.73
2019-03-30T09:10:44.932Z,13.80
2019-03-30T09:13:12.343Z,14.27
2019-03-30T09:15:39.807Z,14.59
2019-03-30T09:18:07.223Z,14.78
2019-03-30T09:20:34.627Z,15.13
2019-03-30T09:23:02.040Z,15.30
2019-03-30T09:25:29.480Z,15.27
2019-03-30T09:27:56.897Z,15.54
2019-03-30T09:30:24.304Z,15.80
2019-03-30T09:32:51.731Z,16.01
2019-03-30T09:35:19.158Z,15.94
2019-03-30T09:37:46.566Z,15.93
2019-03-30T09:40:13.974Z,16.05
2019-03-30T09:42:41.388Z,16.26
2019-03-30T09:45:08.794Z,16.40
2019-03-30T09:47:36.220Z,16.58
2019-03-30T09:50:04.296Z,16.48
2019-03-30T09:52:31.844Z,16.48
2019-03-30T09:54:59.427Z,16.80
2019-03-30T09:57:26.406Z,16.73
2019-03-30T09:59:53.364Z,16.72
2019-03-30T10:02:20.314Z,16.77
2019-03-30T10:04:47.741Z,16.82
2019-03-30T10:07:15.147Z,17.03
2019-03-30T10:09:42.559Z,17.38
2019-03-30T10:12:09.987Z,17.74
2019-03-30T10:14:37.417Z,18.09
2019-03-30T10:17:04.827Z,18.40
2019-03-30T10:19:32.405Z,18.53
2019-03-30T10:21:59.808Z,18.60
2019-03-30T10:24:37.442Z,18.69
2019-03-30T10:26:54.672Z,18.85
2019-03-30T10:29:22.100Z,18.96
2019-03-30T10:31:49.490Z,19.10
2019-03-30T10:34:16.915Z,19.28
2019-03-30T10:36:44.325Z,19.41
2019-03-30T10:39:11.748Z,19.56
2019-03-30T10:41:39.183Z,19.78
2019-03-30T10:44:06.599Z,19.90
2019-03-30T10:46:34.039Z,20.06
2019-03-30T10:49:01.462Z,20.25
2019-03-30T10:51:28.921Z,20.43
2019-03-30T10:53:56.330Z,20.57
2019-03-30T10:56:23.735Z,20.75
2019-03-30T10:58:51.202Z,20.88
2019-03-30T11:01:18.610Z,21.05
2019-03-30T11:03:46.011Z,21.19
2019-03-30T11:06:13.623Z,21.35
2019-03-30T11:08:41.033Z,21.57
2019-03-30T11:11:08.490Z,21.70
2019-03-30T11:13:36.138Z,21.61
2019-03-30T11:16:03.567Z,21.76
2019-03-30T11:18:31.087Z,21.94
2019-03-30T11:20:58.502Z,22.06
2019-03-30T11:23:25.943Z,22.08
2019-03-30T11:25:53.351Z,22.37
2019-03-30T11:28:20.802Z,22.64
2019-03-30T11:30:48.213Z,22.85
2019-03-30T11:33:15.690Z,23.04
2019-03-30T11:35:43.209Z,23.34
2019-03-30T11:38:10.607Z,23.44
2019-03-30T11:40:38.042Z,23.68
2019-03-30T11:43:05.436Z,23.84
2019-03-30T11:45:32.861Z,24.05
2019-03-30T11:48:00.252Z,24.15
2019-03-30T11:50:27.685Z,24.30
2019-03-30T11:52:55.192Z,24.38
2019-03-30T11:55:22.685Z,24.53
2019-03-30T11:57:50.087Z,24.61
2019-03-30T12:00:17.500Z,24.73
2019-03-30T12:02:44.916Z,24.86
2019-03-30T12:05:12.401Z,24.99
2019-03-30T12:07:39.976Z,25.08
2019-03-30T12:10:07.379Z,25.25
2019-03-30T12:12:37.345Z,25.34
2019-03-30T12:15:02.258Z,25.37
2019-03-30T12:17:29.683Z,25.48
2019-03-30T12:19:57.205Z,25.60
2019-03-30T12:22:24.600Z,25.69
2019-03-30T12:24:51.551Z,25.86
2019-03-30T12:27:18.516Z,25.78
2019-03-30T12:29:45.482Z,25.88
2019-03-30T12:32:12.521Z,25.92
2019-03-30T12:34:39.464Z,25.98
2019-03-30T12:37:07.110Z,25.94
2019-03-30T12:39:34.056Z,26.06
2019-03-30T12:42:01.563Z,26.18
2019-03-30T12:44:28.884Z,26.25
2019-03-30T12:46:56.335Z,26.30
2019-03-30T12:49:23.755Z,26.35
2019-03-30T12:51:52.014Z,26.38
2019-03-30T12:54:19.567Z,26.39
2019-03-30T12:56:46.971Z,26.39
2019-03-30T12:59:14.375Z,26.49
2019-03-30T13:01:41.787Z,26.53
2019-03-30T13:04:09.258Z,26.50
2019-03-30T13:06:36.672Z,26.52
2019-03-30T13:09:04.082Z,26.56
2019-03-30T13:11:31.493Z,26.61
2019-03-30T13:13:58.906Z,26.67
2019-03-30T13:16:26.518Z,26.66
2019-03-30T13:18:53.717Z,26.66
2019-03-30T13:21:21.173Z,26.70
2019-03-30T13:23:48.612Z,26.66
2019-03-30T13:26:16.079Z,26.56
2019-03-30T13:28:43.498Z,26.60
2019-03-30T13:31:10.921Z,26.82
2019-03-30T13:33:38.343Z,26.96
2019-03-30T13:36:05.806Z,27.08
2019-03-30T13:38:33.205Z,27.07
2019-03-30T13:41:00.630Z,27.16
2019-03-30T13:43:28.063Z,27.22
2019-03-30T13:45:55.622Z,27.13
2019-03-30T13:48:23.005Z,27.13
2019-03-30T13:50:50.474Z,27.18
2019-03-30T13:53:17.873Z,27.14
2019-03-30T13:55:45.319Z,27.12
2019-03-30T13:58:12.732Z,27.02
2019-03-30T14:00:40.147Z,27.00
2019-03-30T14:03:07.559Z,26.97
2019-03-30T14:05:34.982Z,26.86
2019-03-30T14:08:02.382Z,26.82
2019-03-30T14:10:29.807Z,26.88
2019-03-30T14:12:57.224Z,26.98
2019-03-30T14:15:24.634Z,27.04
2019-03-30T14:17:52.047Z,27.05
2019-03-30T14:20:19.463Z,27.01
2019-03-30T14:22:46.878Z,27.01
2019-03-30T14:25:14.310Z,26.99
2019-03-30T14:27:41.781Z,26.95
2019-03-30T14:30:09.254Z,26.93
2019-03-30T14:32:36.705Z,26.79
2019-03-30T14:35:04.116Z,26.73
2019-03-30T14:37:31.613Z,26.67
2019-03-30T14:39:59.003Z,26.56
2019-03-30T14:42:26.438Z,26.50
2019-03-30T14:44:53.877Z,26.47
2019-03-30T14:47:21.395Z,26.47
2019-03-30T14:49:48.806Z,26.36
2019-03-30T14:52:16.210Z,26.34
2019-03-30T14:54:52.785Z,26.37
2019-03-30T14:57:11.468Z,26.50
2019-03-30T14:59:38.950Z,26.56
2019-03-30T15:02:06.380Z,26.63
2019-03-30T15:04:33.938Z,26.68
2019-03-30T15:07:01.416Z,26.68
2019-03-30T15:09:28.803Z,26.70
2019-03-30T15:11:56.221Z,26.61
2019-03-30T15:14:23.954Z,26.41
2019-03-30T15:16:51.427Z,26.32
2019-03-30T15:19:19.011Z,26.23
2019-03-30T15:21:46.412Z,26.22
2019-03-30T15:24:13.862Z,26.30
2019-03-30T15:26:41.291Z,26.29
2019-03-30T15:29:08.763Z,26.29
2019-03-30T15:31:36.590Z,26.22
2019-03-30T15:34:04.181Z,26.10
2019-03-30T15:36:31.586Z,26.07
2019-03-30T15:38:58.991Z,26.06
2019-03-30T15:41:26.433Z,25.98
2019-03-30T15:43:53.874Z,25.96
2019-03-30T15:46:21.665Z,25.86
2019-03-30T15:48:49.154Z,25.73
2019-03-30T15:51:16.068Z,25.61
2019-03-30T15:53:43.011Z,25.50
2019-03-30T15:56:09.957Z,25.40
2019-03-30T15:58:36.890Z,25.28
2019-03-30T16:01:03.834Z,25.18
2019-03-30T16:03:31.890Z,25.08
2019-03-30T16:05:59.855Z,24.97
2019-03-30T16:08:27.354Z,24.87
2019-03-30T16:10:54.763Z,24.76
2019-03-30T16:13:22.178Z,24.64
2019-03-30T16:15:49.636Z,24.50
2019-03-30T16:18:17.134Z,24.42
2019-03-30T16:20:44.544Z,24.23
2019-03-30T16:23:12.007Z,24.07
2019-03-30T16:25:39.019Z,23.92
2019-03-30T16:28:06.511Z,23.77
2019-03-30T16:30:33.948Z,23.61
2019-03-30T16:33:01.359Z,23.46
2019-03-30T16:35:28.755Z,23.32
2019-03-30T16:37:56.212Z,23.23
2019-03-30T16:40:23.670Z,23.11
2019-03-30T16:42:51.075Z,22.95
2019-03-30T16:45:18.578Z,22.75
2019-03-30T16:47:46.159Z,22.44
2019-03-30T16:50:13.569Z,22.21
2019-03-30T16:52:41.445Z,22.18
2019-03-30T16:55:08.491Z,22.21
2019-03-30T16:57:43.154Z,21.90
2019-03-30T17:00:03.328Z,21.56
2019-03-30T17:02:30.735Z,21.26
2019-03-30T17:04:58.147Z,21.17
2019-03-30T17:07:25.579Z,21.07
2019-03-30T17:09:53.006Z,20.95
2019-03-30T17:12:20.428Z,20.83
2019-03-30T17:14:47.835Z,20.70
2019-03-30T17:17:15.246Z,20.37
2019-03-30T17:19:42.750Z,20.18
2019-03-30T17:22:10.152Z,19.98
2019-03-30T17:24:37.590Z,19.70
2019-03-30T17:27:05.449Z,19.42
2019-03-30T17:29:32.859Z,19.14
2019-03-30T17:32:00.370Z,18.85
2019-03-30T17:34:27.786Z,18.69
2019-03-30T17:36:55.879Z,18.59
2019-03-30T17:39:23.280Z,18.55
2019-03-30T17:41:50.682Z,18.46
2019-03-30T17:44:18.391Z,18.26
2019-03-30T17:46:45.839Z,18.02
2019-03-30T17:49:13.290Z,17.69
2019-03-30T17:51:40.698Z,17.50
2019-03-30T17:54:08.163Z,17.40
2019-03-30T17:56:35.598Z,17.42
2019-03-30T17:59:03.024Z,17.44
2019-03-30T18:01:30.427Z,17.41
2019-03-30T18:03:57.940Z,17.34
2019-03-30T18:06:25.407Z,17.13
2019-03-30T18:08:52.837Z,16.93
2019-03-30T18:11:20.269Z,16.92
2019-03-30T18:13:47.674Z,16.93
2019-03-30T18:16:15.070Z,16.93
2019-03-30T18:18:42.499Z,16.84
2019-03-30T18:21:09.983Z,16.76
2019-03-30T18:23:37.397Z,16.65
2019-03-30T18:26:04.835Z,16.58
2019-03-30T18:28:32.277Z,16.55
2019-03-30T18:30:59.750Z,16.45
2019-03-30T18:33:27.157Z,16.34
2019-03-30T18:35:55.764Z,16.27
2019-03-30T18:38:23.168Z,16.25
2019-03-30T18:40:50.729Z,16.21
2019-03-30T18:43:18.148Z,16.20
2019-03-30T18:45:45.568Z,16.15
2019-03-30T18:48:14.690Z,16.10
2019-03-30T18:50:42.134Z,16.13
2019-03-30T18:53:09.583Z,16.13
2019-03-30T18:55:37.008Z,16.15
2019-03-30T18:58:04.430Z,16.10
2019-03-30T19:00:32.227Z,16.07
2019-03-30T19:02:59.627Z,16.05
2019-03-30T19:05:27.035Z,16.03
2019-03-30T19:07:54.457Z,15.99
2019-03-30T19:10:22.020Z,15.96
2019-03-30T19:12:49.418Z,15.91
2019-03-30T19:15:16.971Z,15.81
2019-03-30T19:17:44.432Z,15.67
2019-03-30T19:20:11.907Z,15.46
2019-03-30T19:22:39.357Z,15.36
2019-03-30T19:25:06.774Z,15.40
2019-03-30T19:27:34.189Z,15.47
2019-03-30T19:30:01.609Z,15.48
2019-03-30T19:32:29.072Z,15.37
2019-03-30T19:34:57.141Z,15.14
2019-03-30T19:37:24.540Z,15.02
2019-03-30T19:39:51.959Z,14.92
2019-03-30T19:42:19.396Z,14.84
2019-03-30T19:44:47.088Z,14.78
2019-03-30T19:47:14.569Z,14.72
2019-03-30T19:49:42.014Z,14.66
2019-03-30T19:52:09.482Z,14.75
2019-03-30T19:54:36.959Z,14.90
2019-03-30T19:57:04.378Z,14.94
2019-03-30T19:59:32.061Z,14.97
2019-03-30T20:01:59.469Z,15.05
2019-03-30T20:04:26.906Z,14.97
2019-03-30T20:06:54.303Z,14.88
2019-03-30T20:09:21.715Z,14.79
2019-03-30T20:11:49.146Z,14.82
2019-03-30T20:14:16.598Z,14.78
2019-03-30T20:16:44.027Z,14.75
2019-03-30T20:19:12.872Z,14.72
2019-03-30T20:21:38.844Z,14.69
2019-03-30T20:24:06.311Z,14.57
2019-03-30T20:26:33.721Z,14.53
2019-03-30T20:29:01.131Z,14.47
2019-03-30T20:31:28.614Z,14.42
2019-03-30T20:33:56.028Z,14.38
2019-03-30T20:36:23.440Z,14.26
2019-03-30T20:38:50.841Z,14.20
2019-03-30T20:41:18.237Z,14.16
2019-03-30T20:43:45.682Z,14.19
2019-03-30T20:46:13.128Z,14.14
2019-03-30T20:48:40.549Z,14.11
2019-03-30T20:51:07.991Z,14.10
2019-03-30T20:53:35.403Z,14.07
2019-03-30T20:56:02.831Z,14.06
2019-03-30T20:58:30.406Z,14.07
2019-03-30T21:00:57.851Z,14.11
2019-03-30T21:03:25.259Z,14.08
2019-03-30T21:05:52.662Z,14.02
2019-03-30T21:08:20.183Z,13.90
2019-03-30T21:10:47.589Z,13.73
2019-03-30T21:13:15.008Z,13.61
2019-03-30T21:15:42.447Z,13.56
2019-03-30T21:18:09.866Z,13.61
2019-03-30T21:20:37.290Z,13.65
2019-03-30T21:23:04.720Z,13.67
2019-03-30T21:25:32.215Z,13.59
2019-03-30T21:27:59.777Z,13.55
2019-03-30T21:30:27.247Z,13.38
2019-03-30T21:32:54.641Z,13.30
2019-03-30T21:35:22.097Z,13.36
2019-03-30T21:37:49.689Z,13.45
2019-03-30T21:40:17.104Z,13.43
2019-03-30T21:42:44.527Z,13.27
2019-03-30T21:45:11.931Z,13.00
2019-03-30T21:47:39.326Z,12.89
2019-03-30T21:50:06.740Z,12.81
2019-03-30T21:52:34.211Z,12.75
2019-03-30T21:55:01.614Z,12.75
2019-03-30T21:57:29.015Z,12.78
2019-03-30T22:00:09.100Z,12.95
2019-03-30T22:02:23.882Z,12.99
2019-03-30T22:04:51.287Z,12.96
2019-03-30T22:07:18.692Z,13.00
2019-03-30T22:09:46.101Z,12.93
2019-03-30T22:12:13.739Z,12.86
2019-03-30T22:14:41.178Z,12.63
2019-03-30T22:17:08.595Z,12.56
2019-03-30T22:19:36.036Z,12.52
2019-03-30T22:22:03.526Z,12.63
2019-03-30T22:24:31.130Z,12.79
2019-03-30T22:26:58.559Z,12.86
2019-03-30T22:29:25.987Z,12.97
2019-03-30T22:31:53.468Z,12.90
2019-03-30T22:34:20.896Z,12.70
2019-03-30T22:36:48.313Z,12.54
2019-03-30T22:39:15.747Z,12.42
2019-03-30T22:41:43.259Z,12.40
2019-03-30T22:44:10.662Z,12.29
2019-03-30T22:46:38.095Z,12.16
2019-03-30T22:49:06.101Z,12.09
2019-03-30T22:51:33.495Z,12.01
2019-03-30T22:54:01.081Z,11.87
2019-03-30T22:56:34.501Z,11.82
2019-03-30T22:59:01.920Z,11.81
2019-03-30T23:01:29.426Z,11.81
2019-03-30T23:03:56.769Z,11.88
2019-03-30T23:06:24.446Z,11.98
2019-03-30T23:08:51.867Z,12.03
2019-03-30T23:11:19.325Z,12.04
2019-03-30T23:13:46.811Z,11.96
2019-03-30T23:16:14.337Z,11.87
2019-03-30T23:18:45.113Z,11.83
2019-03-30T23:21:09.219Z,11.65
2019-03-30T23:23:36.626Z,11.57
2019-03-30T23:26:04.060Z,11.54
2019-03-30T23:28:31.461Z,11.66
2019-03-30T23:30:58.892Z,11.64
2019-03-30T23:33:26.308Z,11.68
2019-03-30T23:35:53.718Z,11.67
2019-03-30T23:38:21.212Z,11.70
2019-03-30T23:40:48.629Z,11.63
2019-03-30T23:43:16.182Z,11.46
2019-03-30T23:45:43.754Z,11.23
2019-03-30T23:48:11.186Z,11.11
2019-03-30T23:50:38.755Z,11.06
2019-03-30T23:53:07.604Z,11.15
2019-03-30T23:55:38.122Z,11.28
2019-03-30T23:58:05.582Z,11.35
